Akron, Colorado
Current Conditions -  °F | °C
As of 2:53 PM on Wednesday 28 Jan 2015 (Local Time) from KAKO Reporting Station
Clear Clear  
Wind Chill: 55°   Ceiling: Unl
Heat Index: 55°   Visibility: 10mi
Dew Point: 31°   Wind: 36mph
Humidity: 40%   Direction: 330°NNW
Pressure: 30.04"   Gusts: 48mph
Location:  40.16°N, 103.21°W
Report Text: KAKO 282153Z AUTO 33031G42KT 10SM CLR 13/M01 A3004 RMK AO2 PK WND 34042/2127 SLP157 T01281006
Loading
Personal Weather Stations






























Interactive Weather Map New forecast layout! Learn more

10-Day Weather Forecast

Advertisements
Track Severe Weather on mobile